createdAt,value
2018-09-29T00:00:33.664Z,27.90
2018-09-29T00:03:05.996Z,27.90
2018-09-29T00:05:38.301Z,27.90
2018-09-29T00:08:10.865Z,27.80
2018-09-29T00:10:43.309Z,27.80
2018-09-29T00:13:15.593Z,27.80
2018-09-29T00:15:47.867Z,27.80
2018-09-29T00:18:20.103Z,27.70
2018-09-29T00:20:52.662Z,27.70
2018-09-29T00:23:25.383Z,27.60
2018-09-29T00:25:57.653Z,27.60
2018-09-29T00:28:30.266Z,27.50
2018-09-29T00:31:02.114Z,27.40
2018-09-29T00:33:34.524Z,27.40
2018-09-29T00:36:07.228Z,27.30
2018-09-29T00:38:39.649Z,27.30
2018-09-29T00:41:12.118Z,27.30
2018-09-29T00:43:44.393Z,27.20
2018-09-29T00:46:16.914Z,27.10
2018-09-29T00:48:49.451Z,27.10
2018-09-29T00:51:21.895Z,27.00
2018-09-29T00:53:54.613Z,26.90
2018-09-29T00:56:26.662Z,26.90
2018-09-29T00:58:59.087Z,26.80
2018-09-29T01:01:30.973Z,26.80
2018-09-29T01:04:03.608Z,26.70
2018-09-29T01:06:35.801Z,26.60
2018-09-29T01:09:08.911Z,26.50
2018-09-29T01:11:41.103Z,26.50
2018-09-29T01:14:13.418Z,26.30
2018-09-29T01:16:45.956Z,26.30
2018-09-29T01:19:18.444Z,26.20
2018-09-29T01:21:50.338Z,26.10
2018-09-29T01:24:22.967Z,26.00
2018-09-29T01:26:55.385Z,25.90
2018-09-29T01:29:27.612Z,25.80
2018-09-29T01:32:00.010Z,25.70
2018-09-29T01:34:33.021Z,25.60
2018-09-29T01:37:05.347Z,25.50
2018-09-29T01:39:37.683Z,25.40
2018-09-29T01:42:10.193Z,25.30
2018-09-29T01:44:42.280Z,25.20
2018-09-29T01:47:14.696Z,25.10
2018-09-29T01:49:46.775Z,25.10
2018-09-29T01:52:18.872Z,25.00
2018-09-29T01:54:50.785Z,24.90
2018-09-29T01:57:22.648Z,24.80
2018-09-29T01:59:55.026Z,24.70
2018-09-29T02:02:27.150Z,24.60
2018-09-29T02:04:58.996Z,24.60
2018-09-29T02:07:30.937Z,24.50
2018-09-29T02:10:02.860Z,24.40
2018-09-29T02:12:34.675Z,24.30
2018-09-29T02:15:07.061Z,24.20
2018-09-29T02:17:39.393Z,24.20
2018-09-29T02:20:11.744Z,24.10
2018-09-29T02:22:43.731Z,24.00
2018-09-29T02:25:16.067Z,23.90
2018-09-29T02:27:48.328Z,23.90
2018-09-29T02:30:20.276Z,23.90
2018-09-29T02:32:52.138Z,23.90
2018-09-29T02:35:24.108Z,23.90
2018-09-29T02:37:55.847Z,23.80
2018-09-29T02:40:27.663Z,23.70
2018-09-29T02:42:59.659Z,23.80
2018-09-29T02:45:31.701Z,23.70
2018-09-29T02:48:03.439Z,23.80
2018-09-29T02:50:35.622Z,23.70
2018-09-29T02:53:08.669Z,23.70
2018-09-29T02:55:40.809Z,23.70
2018-09-29T02:58:13.433Z,23.70
2018-09-29T03:00:45.663Z,23.60
2018-09-29T03:03:17.889Z,23.60
2018-09-29T03:05:50.131Z,23.60
2018-09-29T03:08:23.307Z,23.50
2018-09-29T03:10:55.703Z,23.50
2018-09-29T03:13:28.017Z,23.50
2018-09-29T03:16:00.682Z,23.50
2018-09-29T03:18:32.919Z,23.50
2018-09-29T03:21:04.751Z,23.50
2018-09-29T03:23:37.747Z,23.50
2018-09-29T03:26:10.035Z,23.40
2018-09-29T03:28:42.341Z,23.30
2018-09-29T03:31:14.840Z,23.30
2018-09-29T03:33:47.112Z,23.30
2018-09-29T03:36:18.922Z,23.20
2018-09-29T03:38:50.627Z,23.20
2018-09-29T03:41:22.471Z,23.20
2018-09-29T03:43:54.227Z,23.10
2018-09-29T03:46:26.589Z,23.10
2018-09-29T03:48:58.776Z,23.10
2018-09-29T03:51:31.138Z,23.10
2018-09-29T03:54:03.266Z,23.10
2018-09-29T03:56:35.840Z,23.10
2018-09-29T03:59:08.137Z,23.00
2018-09-29T04:01:40.785Z,23.10
2018-09-29T04:04:12.575Z,23.00
2018-09-29T04:06:44.658Z,23.00
2018-09-29T04:09:16.831Z,23.00
2018-09-29T04:11:49.434Z,23.00
2018-09-29T04:14:21.971Z,22.90
2018-09-29T04:16:54.614Z,22.80
2018-09-29T04:19:26.957Z,22.80
2018-09-29T04:21:59.911Z,22.70
2018-09-29T04:24:31.773Z,22.70
2018-09-29T04:27:04.853Z,22.70
2018-09-29T04:29:37.089Z,22.60
2018-09-29T04:32:09.614Z,22.60
2018-09-29T04:34:41.892Z,22.50
2018-09-29T04:37:14.571Z,22.50
2018-09-29T04:39:47.081Z,22.40
2018-09-29T04:42:19.973Z,22.40
2018-09-29T04:44:52.918Z,22.20
2018-09-29T04:47:25.041Z,22.10
2018-09-29T04:49:56.806Z,22.00
2018-09-29T04:52:28.574Z,21.90
2018-09-29T04:55:01.263Z,21.80
2018-09-29T04:57:33.851Z,21.70
2018-09-29T05:00:06.219Z,21.60
2018-09-29T05:02:38.651Z,21.40
2018-09-29T05:05:10.782Z,21.10
2018-09-29T05:07:43.254Z,20.80
2018-09-29T05:10:15.439Z,20.60
2018-09-29T05:12:48.018Z,20.50
2018-09-29T05:15:20.233Z,20.30
2018-09-29T05:17:52.174Z,20.20
2018-09-29T05:20:24.025Z,20.20
2018-09-29T05:22:55.901Z,20.00
2018-09-29T05:25:28.257Z,19.70
2018-09-29T05:28:01.193Z,19.40
2018-09-29T05:30:33.413Z,19.30
2018-09-29T05:33:05.869Z,19.20
2018-09-29T05:35:37.637Z,19.10
2018-09-29T05:38:09.922Z,19.00
2018-09-29T05:40:42.351Z,18.90
2018-09-29T05:43:14.226Z,18.70
2018-09-29T05:45:46.751Z,18.60
2018-09-29T05:48:18.914Z,18.60
2018-09-29T05:50:51.593Z,18.50
2018-09-29T05:53:23.886Z,18.50
2018-09-29T05:55:56.062Z,18.40
2018-09-29T05:58:28.273Z,18.20
2018-09-29T06:01:00.758Z,18.00
2018-09-29T06:03:33.233Z,18.20
2018-09-29T06:06:05.290Z,18.50
2018-09-29T06:08:38.081Z,18.70
2018-09-29T06:11:10.385Z,18.80
2018-09-29T06:13:42.413Z,19.10
2018-09-29T06:16:14.723Z,19.10
2018-09-29T06:18:47.627Z,19.10
2018-09-29T06:21:19.919Z,19.00
2018-09-29T06:23:52.574Z,19.00
2018-09-29T06:26:25.070Z,18.90
2018-09-29T06:28:57.270Z,18.70
2018-09-29T06:31:29.571Z,18.60
2018-09-29T06:34:01.866Z,18.50
2018-09-29T06:36:33.933Z,18.50
2018-09-29T06:39:06.990Z,18.40
2018-09-29T06:41:39.289Z,18.20
2018-09-29T06:44:11.479Z,18.10
2018-09-29T06:46:43.543Z,18.00
2018-09-29T06:49:15.965Z,18.00
2018-09-29T06:51:48.109Z,17.90
2018-09-29T06:54:20.484Z,17.70
2018-09-29T06:56:52.977Z,17.60
2018-09-29T06:59:25.214Z,17.40
2018-09-29T07:01:57.530Z,17.30
2018-09-29T07:04:29.726Z,17.10
2018-09-29T07:07:02.061Z,17.10
2018-09-29T07:09:34.199Z,17.00
2018-09-29T07:12:06.421Z,17.00
2018-09-29T07:14:38.801Z,17.00
2018-09-29T07:17:10.959Z,17.10
2018-09-29T07:19:43.219Z,17.00
2018-09-29T07:22:15.489Z,17.00
2018-09-29T07:24:47.689Z,17.00
2018-09-29T07:27:19.832Z,17.00
2018-09-29T07:29:51.852Z,16.90
2018-09-29T07:32:23.962Z,16.90
2018-09-29T07:34:56.378Z,16.90
2018-09-29T07:37:28.680Z,16.90
2018-09-29T07:40:01.091Z,16.80
2018-09-29T07:42:33.429Z,16.80
2018-09-29T07:45:05.705Z,16.70
2018-09-29T07:47:38.463Z,16.70
2018-09-29T07:50:10.767Z,16.60
2018-09-29T07:52:42.929Z,16.50
2018-09-29T07:55:15.113Z,16.50
2018-09-29T07:57:47.164Z,16.50
2018-09-29T08:00:19.394Z,16.40
2018-09-29T08:02:51.484Z,16.30
2018-09-29T08:05:23.928Z,16.30
2018-09-29T08:07:55.927Z,16.30
2018-09-29T08:10:28.529Z,16.30
2018-09-29T08:13:01.990Z,16.10
2018-09-29T08:15:34.384Z,16.10
2018-09-29T08:18:06.413Z,16.10
2018-09-29T08:20:38.647Z,16.10
2018-09-29T08:23:10.872Z,16.00
2018-09-29T08:25:42.976Z,16.00
2018-09-29T08:28:15.184Z,16.00
2018-09-29T08:30:47.206Z,15.90
2018-09-29T08:33:19.287Z,15.90
2018-09-29T08:35:51.586Z,15.80
2018-09-29T08:38:23.827Z,15.80
2018-09-29T08:40:56.091Z,15.80
2018-09-29T08:43:28.383Z,15.80
2018-09-29T08:46:00.433Z,15.70
2018-09-29T08:48:32.911Z,15.60
2018-09-29T08:51:05.233Z,15.60
2018-09-29T08:53:37.531Z,15.50
2018-09-29T08:56:09.901Z,15.40
2018-09-29T08:58:42.204Z,15.30
2018-09-29T09:01:14.642Z,15.30
2018-09-29T09:03:46.948Z,15.30
2018-09-29T09:06:19.615Z,15.30
2018-09-29T09:08:52.155Z,15.20
2018-09-29T09:11:24.822Z,15.20
2018-09-29T09:13:57.227Z,15.20
2018-09-29T09:16:29.361Z,15.20
2018-09-29T09:19:01.499Z,15.10
2018-09-29T09:21:33.789Z,15.10
2018-09-29T09:24:05.897Z,15.00
2018-09-29T09:26:38.071Z,15.00
2018-09-29T09:29:10.546Z,15.00
2018-09-29T09:31:43.756Z,14.90
2018-09-29T09:34:15.898Z,14.90
2018-09-29T09:36:48.245Z,14.90
2018-09-29T09:39:20.662Z,14.90
2018-09-29T09:41:52.668Z,14.80
2018-09-29T09:44:25.322Z,14.80
2018-09-29T09:46:57.811Z,14.80
2018-09-29T09:49:29.892Z,14.80
2018-09-29T09:52:02.675Z,14.70
2018-09-29T09:54:34.812Z,14.70
2018-09-29T09:57:07.550Z,14.70
2018-09-29T09:59:39.546Z,14.70
2018-09-29T10:02:16.554Z,14.60
2018-09-29T10:04:48.583Z,14.60
2018-09-29T10:07:20.622Z,14.50
2018-09-29T10:09:53.844Z,14.50
2018-09-29T10:12:26.366Z,14.50
2018-09-29T10:14:58.688Z,14.50
2018-09-29T10:17:31.226Z,14.40
2018-09-29T10:20:03.402Z,14.40
2018-09-29T10:22:35.581Z,14.30
2018-09-29T10:25:07.870Z,14.30
2018-09-29T10:27:40.256Z,14.30
2018-09-29T10:30:12.986Z,14.30
2018-09-29T10:32:45.338Z,14.20
2018-09-29T10:35:17.408Z,14.20
2018-09-29T10:37:50.107Z,14.10
2018-09-29T10:40:22.387Z,14.10
2018-09-29T10:42:54.832Z,14.00
2018-09-29T10:45:27.249Z,14.00
2018-09-29T10:47:59.898Z,13.90
2018-09-29T10:50:31.861Z,13.90
2018-09-29T10:53:04.306Z,13.90
2018-09-29T10:55:36.412Z,13.90
2018-09-29T10:58:08.793Z,13.80
2018-09-29T11:00:41.225Z,13.80
2018-09-29T11:03:13.727Z,13.70
2018-09-29T11:05:45.988Z,13.70
2018-09-29T11:08:18.206Z,13.70
2018-09-29T11:10:50.337Z,13.60
2018-09-29T11:13:22.727Z,13.60
2018-09-29T11:15:55.074Z,13.50
2018-09-29T11:18:27.002Z,13.50
2018-09-29T11:20:59.108Z,13.50
2018-09-29T11:23:31.434Z,13.40
2018-09-29T11:26:03.753Z,13.40
2018-09-29T11:28:36.187Z,13.30
2018-09-29T11:31:08.397Z,13.30
2018-09-29T11:33:40.812Z,13.20
2018-09-29T11:36:13.135Z,13.20
2018-09-29T11:38:45.575Z,13.10
2018-09-29T11:41:17.751Z,13.10
2018-09-29T11:43:50.047Z,13.10
2018-09-29T11:46:22.276Z,13.10
2018-09-29T11:48:54.672Z,13.00
2018-09-29T11:51:26.928Z,13.00
2018-09-29T11:53:59.435Z,12.90
2018-09-29T11:56:31.683Z,12.90
2018-09-29T11:59:03.809Z,12.80
2018-09-29T12:01:36.102Z,12.80
2018-09-29T12:04:08.339Z,12.70
2018-09-29T12:06:40.596Z,12.70
2018-09-29T12:09:14.091Z,12.60
2018-09-29T12:11:46.315Z,12.70
2018-09-29T12:14:18.553Z,12.60
2018-09-29T12:16:50.662Z,12.60
2018-09-29T12:19:23.477Z,12.50
2018-09-29T12:21:55.817Z,12.50
2018-09-29T12:24:28.373Z,12.40
2018-09-29T12:27:00.350Z,12.40
2018-09-29T12:29:32.821Z,12.40
2018-09-29T12:32:05.095Z,12.30
2018-09-29T12:34:37.485Z,12.30
2018-09-29T12:37:09.723Z,12.20
2018-09-29T12:39:42.071Z,12.20
2018-09-29T12:42:14.373Z,12.20
2018-09-29T12:44:46.362Z,12.20
2018-09-29T12:47:18.701Z,12.10
2018-09-29T12:49:51.165Z,12.10
2018-09-29T12:52:23.260Z,12.10
2018-09-29T12:54:55.966Z,12.10
2018-09-29T12:57:28.168Z,12.10
2018-09-29T13:00:00.226Z,12.10
2018-09-29T13:02:32.210Z,12.00
2018-09-29T13:05:04.431Z,12.00
2018-09-29T13:07:36.955Z,12.00
2018-09-29T13:10:09.466Z,12.00
2018-09-29T13:12:41.733Z,12.00
2018-09-29T13:15:14.101Z,12.00
2018-09-29T13:17:46.448Z,12.00
2018-09-29T13:20:18.780Z,12.00
2018-09-29T13:22:50.854Z,12.00
2018-09-29T13:25:23.006Z,12.00
2018-09-29T13:27:55.177Z,12.00
2018-09-29T13:30:27.410Z,11.90
2018-09-29T13:32:59.614Z,11.90
2018-09-29T13:35:31.978Z,11.90
2018-09-29T13:38:04.384Z,11.90
2018-09-29T13:40:36.656Z,11.90
2018-09-29T13:43:08.715Z,11.80
2018-09-29T13:45:41.188Z,11.80
2018-09-29T13:48:13.767Z,11.80
2018-09-29T13:50:46.174Z,11.80
2018-09-29T13:53:18.601Z,11.80
2018-09-29T13:55:51.422Z,11.70
2018-09-29T13:58:23.550Z,11.70
2018-09-29T14:00:55.679Z,11.60
2018-09-29T14:03:27.905Z,11.50
2018-09-29T14:06:00.003Z,11.50
2018-09-29T14:08:32.327Z,11.50
2018-09-29T14:11:04.459Z,11.50
2018-09-29T14:13:36.964Z,11.50
2018-09-29T14:16:09.564Z,11.50
2018-09-29T14:18:41.554Z,11.50
2018-09-29T14:21:13.946Z,11.50
2018-09-29T14:23:46.060Z,11.50
2018-09-29T14:26:18.661Z,11.60
2018-09-29T14:28:50.995Z,11.60
2018-09-29T14:31:23.427Z,11.60
2018-09-29T14:33:55.785Z,11.70
2018-09-29T14:36:27.916Z,11.70
2018-09-29T14:38:59.985Z,11.80
2018-09-29T14:41:32.371Z,11.80
2018-09-29T14:44:04.715Z,11.80
2018-09-29T14:46:36.986Z,11.90
2018-09-29T14:49:09.267Z,12.00
2018-09-29T14:51:41.725Z,12.10
2018-09-29T14:54:14.234Z,12.10
2018-09-29T14:56:46.634Z,12.20
2018-09-29T14:59:19.078Z,12.30
2018-09-29T15:01:51.195Z,12.40
2018-09-29T15:04:23.383Z,12.50
2018-09-29T15:06:55.661Z,12.60
2018-09-29T15:09:28.033Z,12.70
2018-09-29T15:12:00.242Z,12.80
2018-09-29T15:14:33.019Z,12.90
2018-09-29T15:17:05.814Z,13.00
2018-09-29T15:19:38.498Z,13.10
2018-09-29T15:22:10.593Z,13.20
2018-09-29T15:24:43.307Z,13.20
2018-09-29T15:27:15.509Z,13.30
2018-09-29T15:29:47.642Z,13.30
2018-09-29T15:32:19.823Z,13.40
2018-09-29T15:34:51.901Z,13.40
2018-09-29T15:37:24.124Z,13.40
2018-09-29T15:39:56.447Z,13.50
2018-09-29T15:42:29.349Z,13.60
2018-09-29T15:45:01.357Z,13.70
2018-09-29T15:47:33.788Z,13.70
2018-09-29T15:50:06.093Z,13.80
2018-09-29T15:52:38.472Z,13.80
2018-09-29T15:55:10.877Z,13.80
2018-09-29T15:57:43.058Z,13.90
2018-09-29T16:00:15.147Z,14.00
2018-09-29T16:02:47.564Z,14.00
2018-09-29T16:05:19.705Z,14.10
2018-09-29T16:07:52.090Z,14.20
2018-09-29T16:10:24.285Z,14.20
2018-09-29T16:12:56.464Z,14.40
2018-09-29T16:15:28.253Z,14.50
2018-09-29T16:18:00.987Z,14.60
2018-09-29T16:20:32.747Z,14.70
2018-09-29T16:23:04.693Z,14.80
2018-09-29T16:25:36.405Z,14.70
2018-09-29T16:28:08.646Z,14.80
2018-09-29T16:30:40.372Z,14.90
2018-09-29T16:33:12.664Z,15.00
2018-09-29T16:35:44.372Z,14.90
2018-09-29T16:38:16.179Z,15.00
2018-09-29T16:40:48.868Z,15.00
2018-09-29T16:43:21.131Z,15.00
2018-09-29T16:45:52.950Z,14.90
2018-09-29T16:48:25.425Z,14.90
2018-09-29T16:50:58.179Z,15.00
2018-09-29T16:53:30.625Z,15.00
2018-09-29T16:56:02.348Z,15.20
2018-09-29T16:58:34.087Z,15.30
2018-09-29T17:01:05.813Z,15.30
2018-09-29T17:03:37.754Z,15.40
2018-09-29T17:06:09.722Z,15.40
2018-09-29T17:08:41.562Z,15.60
2018-09-29T17:11:13.312Z,15.80
2018-09-29T17:13:45.821Z,16.00
2018-09-29T17:16:17.524Z,16.10
2018-09-29T17:18:49.623Z,16.10
2018-09-29T17:21:21.756Z,16.30
2018-09-29T17:23:54.157Z,16.40
2018-09-29T17:26:26.386Z,16.30
2018-09-29T17:28:58.887Z,16.40
2018-09-29T17:31:32.338Z,16.40
2018-09-29T17:34:04.480Z,16.60
2018-09-29T17:36:36.228Z,16.70
2018-09-29T17:39:11.026Z,16.70
2018-09-29T17:41:42.795Z,16.80
2018-09-29T17:44:14.594Z,16.90
2018-09-29T17:46:46.311Z,16.90
2018-09-29T17:49:18.041Z,16.80
2018-09-29T17:51:49.755Z,16.80
2018-09-29T17:54:21.571Z,16.90
2018-09-29T17:56:53.306Z,17.20
2018-09-29T17:59:26.102Z,17.10
2018-09-29T18:01:58.637Z,17.20
2018-09-29T18:04:30.885Z,17.30
2018-09-29T18:07:03.123Z,17.20
2018-09-29T18:09:35.465Z,17.30
2018-09-29T18:12:07.814Z,17.30
2018-09-29T18:14:39.855Z,17.10
2018-09-29T18:17:12.166Z,17.20
2018-09-29T18:19:44.378Z,17.40
2018-09-29T18:22:16.112Z,17.50
2018-09-29T18:24:47.902Z,17.50
2018-09-29T18:27:20.012Z,17.60
2018-09-29T18:29:52.653Z,17.60
2018-09-29T18:32:25.127Z,17.70
2018-09-29T18:34:57.081Z,17.70
2018-09-29T18:37:29.489Z,17.80
2018-09-29T18:40:01.953Z,17.90
2018-09-29T18:42:33.725Z,17.90
2018-09-29T18:45:05.567Z,18.00
2018-09-29T18:47:37.825Z,18.10
2018-09-29T18:50:09.749Z,18.10
2018-09-29T18:52:41.568Z,18.00
2018-09-29T18:55:13.494Z,17.90
2018-09-29T18:57:45.318Z,18.10
2018-09-29T19:00:17.997Z,18.30
2018-09-29T19:02:50.261Z,18.30
2018-09-29T19:05:22.099Z,18.40
2018-09-29T19:07:54.577Z,18.50
2018-09-29T19:10:26.385Z,18.60
2018-09-29T19:12:58.954Z,18.70
2018-09-29T19:15:30.789Z,18.80
2018-09-29T19:18:03.254Z,19.00
2018-09-29T19:20:36.443Z,19.00
2018-09-29T19:23:08.399Z,19.10
2018-09-29T19:25:40.237Z,19.10
2018-09-29T19:28:11.944Z,19.20
2018-09-29T19:30:44.110Z,19.30
2018-09-29T19:33:15.859Z,19.20
2018-09-29T19:35:48.109Z,19.20
2018-09-29T19:38:19.835Z,19.10
2018-09-29T19:40:52.151Z,18.90
2018-09-29T19:43:23.983Z,18.90
2018-09-29T19:45:55.796Z,19.10
2018-09-29T19:48:27.884Z,19.20
2018-09-29T19:51:00.550Z,19.30
2018-09-29T19:53:32.288Z,19.30
2018-09-29T19:56:04.093Z,19.40
2018-09-29T19:58:36.373Z,19.30
2018-09-29T20:01:08.552Z,19.20
2018-09-29T20:03:40.700Z,19.20
2018-09-29T20:06:12.622Z,19.00
2018-09-29T20:08:44.374Z,19.00
2018-09-29T20:11:16.902Z,19.00
2018-09-29T20:13:49.177Z,19.00
2018-09-29T20:16:20.984Z,19.00
2018-09-29T20:18:53.950Z,19.00
2018-09-29T20:21:26.844Z,19.10
2018-09-29T20:23:59.281Z,19.10
2018-09-29T20:26:31.059Z,19.20
2018-09-29T20:29:02.804Z,19.40
2018-09-29T20:31:34.573Z,19.30
2018-09-29T20:34:06.435Z,19.30
2018-09-29T20:36:38.167Z,19.30
2018-09-29T20:39:13.847Z,19.30
2018-09-29T20:41:46.218Z,19.20
2018-09-29T20:44:18.168Z,19.30
2018-09-29T20:46:50.876Z,19.20
2018-09-29T20:49:23.127Z,19.20
2018-09-29T20:51:55.480Z,19.20
2018-09-29T20:54:27.170Z,19.00
2018-09-29T20:56:59.730Z,18.90
2018-09-29T20:59:31.500Z,18.80
2018-09-29T21:02:04.132Z,18.90
2018-09-29T21:04:36.237Z,18.90
2018-09-29T21:07:08.201Z,18.90
2018-09-29T21:09:39.983Z,18.90
2018-09-29T21:12:12.384Z,18.90
2018-09-29T21:14:44.513Z,18.80
2018-09-29T21:17:18.124Z,18.90
2018-09-29T21:19:49.898Z,18.80
2018-09-29T21:22:22.746Z,18.90
2018-09-29T21:24:55.479Z,18.90
2018-09-29T21:27:27.258Z,18.90
2018-09-29T21:29:58.997Z,18.90
2018-09-29T21:32:30.877Z,18.90
2018-09-29T21:35:03.161Z,18.90
2018-09-29T21:37:35.642Z,18.90
2018-09-29T21:40:07.551Z,18.90
2018-09-29T21:42:39.309Z,19.00
2018-09-29T21:45:11.680Z,19.10
2018-09-29T21:47:43.866Z,19.00
2018-09-29T21:50:16.610Z,18.90
2018-09-29T21:52:49.722Z,19.10
2018-09-29T21:55:21.982Z,19.10
2018-09-29T21:57:54.307Z,19.10
2018-09-29T22:00:31.411Z,19.10
2018-09-29T22:03:04.053Z,19.20
2018-09-29T22:05:35.807Z,19.20
2018-09-29T22:08:08.578Z,19.20
2018-09-29T22:10:40.941Z,19.30
2018-09-29T22:13:13.634Z,19.40
2018-09-29T22:15:45.334Z,19.50
2018-09-29T22:18:17.116Z,19.50
2018-09-29T22:20:49.404Z,19.60
2018-09-29T22:23:21.554Z,19.60
2018-09-29T22:25:54.863Z,19.50
2018-09-29T22:28:27.757Z,19.70
2018-09-29T22:31:00.192Z,19.80
2018-09-29T22:33:32.394Z,19.90
2018-09-29T22:36:04.689Z,20.00
2018-09-29T22:38:37.180Z,20.00
2018-09-29T22:41:08.977Z,19.90
2018-09-29T22:43:40.869Z,19.90
2018-09-29T22:46:12.977Z,20.00
2018-09-29T22:48:45.782Z,20.00
2018-09-29T22:51:17.603Z,20.00
2018-09-29T22:53:49.367Z,20.00
2018-09-29T22:56:21.566Z,19.80
2018-09-29T22:58:53.650Z,19.90
2018-09-29T23:01:25.512Z,19.90
2018-09-29T23:03:57.330Z,19.80
2018-09-29T23:06:29.297Z,19.80
2018-09-29T23:09:01.765Z,19.90
2018-09-29T23:11:33.513Z,19.90
2018-09-29T23:14:05.975Z,19.90
2018-09-29T23:16:39.537Z,19.80
2018-09-29T23:19:11.595Z,19.70
2018-09-29T23:21:44.346Z,19.80
2018-09-29T23:24:16.574Z,19.80
2018-09-29T23:26:49.325Z,19.70
2018-09-29T23:29:21.776Z,19.80
2018-09-29T23:31:54.258Z,19.80
2018-09-29T23:34:26.665Z,19.70
2018-09-29T23:36:58.848Z,19.60
2018-09-29T23:39:31.175Z,19.60
2018-09-29T23:42:03.397Z,19.80
2018-09-29T23:44:35.894Z,19.90
2018-09-29T23:47:08.889Z,19.90
2018-09-29T23:49:41.097Z,20.00
2018-09-29T23:52:13.446Z,19.80
2018-09-29T23:54:45.718Z,19.90
2018-09-29T23:57:17.826Z,19.90
2018-09-29T23:59:50.566Z,19.80
